Time;durP1;ratioP1;P1;durP2;ratioP2;P2;SDS_P1;SDS_P2;PMS_P1;PMS_P2;Temp;Humidity;BMP_temperature;BMP_pressure;BME280_temperature;BME280_humidity;BME280_pressure;Samples;Min_cycle;Max_cycle;Signal;HPM_P1;HPM_P2
2021/01/13 00:00:50;;;;;;;26.30;15.43;;;;;;;-2.91;81.36;94978.63;5125103;27;20459;-55
2021/01/13 00:03:17;;;;;;;21.50;15.52;;;;;;;-2.92;81.48;94976.22;5126814;27;20043;-55
2021/01/13 00:05:45;;;;;;;26.45;16.20;;;;;;;-2.92;81.38;94976.22;5099637;27;20050;-56
2021/01/13 00:08:12;;;;;;;25.08;16.05;;;;;;;-2.84;80.60;94987.16;5101135;27;20051;-58
2021/01/13 00:10:39;;;;;;;25.05;15.85;;;;;;;-2.85;81.23;94990.72;5115459;27;20503;-56
2021/01/13 00:13:06;;;;;;;23.48;15.02;;;;;;;-2.78;80.92;94994.13;5089154;27;20055;-57
2021/01/13 00:15:33;;;;;;;21.58;14.82;;;;;;;-2.76;80.78;94993.13;5130405;27;20387;-56
2021/01/13 00:18:01;;;;;;;26.50;16.20;;;;;;;-2.79;81.35;94987.38;5100113;27;20055;-56
2021/01/13 00:20:28;;;;;;;26.15;17.42;;;;;;;-2.80;81.02;94985.78;5122648;27;20419;-56
2021/01/13 00:22:55;;;;;;;21.90;14.23;;;;;;;-2.79;80.91;94992.53;5100004;27;20057;-56
2021/01/13 00:25:22;;;;;;;26.73;16.52;;;;;;;-2.78;81.38;94990.75;5133398;27;20396;-56
2021/01/13 00:27:49;;;;;;;23.17;16.95;;;;;;;-2.78;81.25;94981.22;5120787;27;20054;-56
2021/01/13 00:30:17;;;;;;;28.20;16.75;;;;;;;-2.78;81.03;94994.13;5097136;27;20054;-56
2021/01/13 00:32:45;;;;;;;25.75;16.63;;;;;;;-2.78;81.01;94996.72;5073554;27;20047;-56
2021/01/13 00:35:13;;;;;;;25.73;15.85;;;;;;;-2.79;80.64;94995.13;5101394;27;20058;-56
2021/01/13 00:37:41;;;;;;;23.33;15.40;;;;;;;-2.79;80.66;94989.97;5103475;27;20192;-56
2021/01/13 00:40:10;;;;;;;22.35;15.35;;;;;;;-2.78;81.34;94999.31;5093807;27;20044;-56
2021/01/13 00:42:45;;;;;;;21.58;15.20;;;;;;;-2.81;80.52;94998.88;5079492;27;20055;-56
2021/01/13 00:45:17;;;;;;;24.05;15.15;;;;;;;-2.87;81.04;95000.44;5113775;27;20055;-58
2021/01/13 00:47:52;;;;;;;24.85;15.70;;;;;;;-2.90;81.05;95008.59;5090025;27;20047;-57
2021/01/13 00:50:20;;;;;;;25.83;17.65;;;;;;;-3.00;81.51;94990.06;5098590;27;20237;-57
2021/01/13 00:52:50;;;;;;;25.08;15.65;;;;;;;-2.97;81.54;95000.81;5095556;27;20851;-61
2021/01/13 00:55:17;;;;;;;25.52;15.35;;;;;;;-2.99;81.06;94981.34;5079009;27;20047;-56
2021/01/13 00:57:51;;;;;;;23.98;14.35;;;;;;;-2.98;81.18;94988.09;5093136;27;20079;-57
2021/01/13 01:00:19;;;;;;;23.38;14.65;;;;;;;-2.95;80.88;94998.81;5113996;27;20121;-56
2021/01/13 01:02:51;;;;;;;20.38;14.00;;;;;;;-2.87;80.62;95012.56;5104170;27;20050;-56
2021/01/13 01:05:19;;;;;;;26.85;15.50;;;;;;;-2.84;80.13;95014.75;5101324;27;20047;-57
2021/01/13 01:07:47;;;;;;;33.13;21.45;;;;;;;-2.79;80.85;95015.78;5123930;27;20043;-56
2021/01/13 01:10:20;;;;;;;34.00;22.23;;;;;;;-2.69;80.66;95014.59;5130978;27;20413;-56
2021/01/13 01:12:48;;;;;;;25.45;18.00;;;;;;;-2.63;80.73;95013.81;5107739;27;20047;-56
2021/01/13 01:15:15;;;;;;;32.80;21.17;;;;;;;-2.61;80.13;95014.41;5106090;27;20051;-56
2021/01/13 01:17:43;;;;;;;29.88;20.75;;;;;;;-2.63;80.80;95006.06;5131518;27;20043;-56
2021/01/13 01:20:11;;;;;;;25.50;16.92;;;;;;;-2.64;79.74;95010.44;5084562;27;20047;-56
2021/01/13 01:23:05;;;;;;;24.75;15.23;;;;;;;-2.70;80.31;95015.59;5108508;27;20967;-56
2021/01/13 01:25:32;;;;;;;21.10;14.13;;;;;;;-2.73;80.05;95010.81;5109576;27;20063;-57
2021/01/13 01:28:01;;;;;;;24.05;15.40;;;;;;;-2.70;79.46;95013.00;5127577;27;20050;-56
2021/01/13 01:30:29;;;;;;;20.98;13.85;;;;;;;-2.68;80.19;95018.78;5119869;27;20801;-56
2021/01/13 01:32:57;;;;;;;24.58;15.30;;;;;;;-2.72;79.48;95004.66;5124464;27;20160;-57
2021/01/13 01:35:25;;;;;;;23.83;15.05;;;;;;;-2.73;80.01;94998.72;5072958;27;20525;-57
2021/01/13 01:37:53;;;;;;;23.88;15.32;;;;;;;-2.74;79.64;95006.63;5105263;27;20049;-56
2021/01/13 01:40:20;;;;;;;21.15;15.40;;;;;;;-2.73;80.18;95003.06;5134043;27;20051;-57
2021/01/13 01:42:57;;;;;;;22.50;14.40;;;;;;;-2.76;79.78;95004.25;5125705;27;20073;-56
2021/01/13 01:45:27;;;;;;;23.77;16.60;;;;;;;-2.73;80.09;95013.38;5118303;27;20070;-57
2021/01/13 01:48:28;;;;;;;22.73;14.77;;;;;;;-2.69;79.95;95019.75;5072584;27;20034;-57
2021/01/13 01:51:00;;;;;;;23.52;14.63;;;;;;;-2.68;79.63;95018.78;5114330;27;20497;-56
2021/01/13 01:53:36;;;;;;;22.25;15.00;;;;;;;-2.66;80.02;95015.00;5104883;27;20058;-56
2021/01/13 01:56:19;;;;;;;24.65;15.05;;;;;;;-2.63;79.80;95011.22;5095593;27;20055;-56
2021/01/13 01:58:48;;;;;;;22.33;14.38;;;;;;;-2.59;80.13;94999.53;5130785;27;20054;-56
2021/01/13 02:01:38;;;;;;;22.30;15.35;;;;;;;-2.58;79.38;94995.97;5097585;27;20038;-61
2021/01/13 02:04:16;;;;;;;24.65;15.98;;;;;;;-2.57;80.04;95002.72;5111612;27;21568;-56
2021/01/13 02:07:05;;;;;;;27.40;16.60;;;;;;;-2.57;80.18;94994.97;5086167;27;20054;-56
2021/01/13 02:09:33;;;;;;;25.38;16.25;;;;;;;-2.58;80.49;94998.53;5099960;27;20047;-56
2021/01/13 02:12:09;;;;;;;24.40;15.73;;;;;;;-2.58;80.32;95014.03;5116754;27;20537;-56
2021/01/13 02:14:41;;;;;;;20.90;14.27;;;;;;;-2.56;80.52;95006.88;5093654;27;20054;-56
2021/01/13 02:17:10;;;;;;;25.50;15.88;;;;;;;-2.55;79.88;95016.22;5084487;27;20043;-56
2021/01/13 02:19:46;;;;;;;24.38;15.52;;;;;;;-2.50;80.39;95018.22;5112566;27;20384;-56
2021/01/13 02:22:16;;;;;;;21.98;15.57;;;;;;;-2.48;80.12;95016.25;5130791;27;20046;-56
2021/01/13 02:25:05;;;;;;;22.98;16.15;;;;;;;-2.49;79.59;95012.84;5108243;27;20042;-59
2021/01/13 02:27:47;;;;;;;23.27;14.65;;;;;;;-2.48;79.72;95014.44;5119566;27;20116;-60
2021/01/13 02:30:18;;;;;;;23.45;15.60;;;;;;;-2.45;80.17;95018.41;5131331;27;20059;-57
2021/01/13 02:32:49;;;;;;;26.52;15.95;;;;;;;-2.43;79.72;95020.81;5113224;27;20050;-57
2021/01/13 02:35:27;;;;;;;20.30;13.15;;;;;;;-2.38;79.61;95028.75;5127360;27;20049;-57
2021/01/13 02:38:07;;;;;;;23.52;15.27;;;;;;;-2.39;79.80;95032.34;5116920;27;20513;-58
2021/01/13 02:40:36;;;;;;;22.75;14.43;;;;;;;-2.36;79.28;95021.63;5110800;27;20058;-57
2021/01/13 02:43:09;;;;;;;24.45;16.13;;;;;;;-2.36;79.41;95034.53;5092744;27;20050;-57
2021/01/13 02:45:43;;;;;;;24.95;15.85;;;;;;;-2.33;79.42;95031.56;5110547;27;20054;-56
2021/01/13 02:48:20;;;;;;;24.38;17.30;;;;;;;-2.33;80.01;95041.91;5128893;27;20050;-57
2021/01/13 02:50:56;;;;;;;25.50;16.00;;;;;;;-2.33;80.31;95039.31;5121138;27;20046;-56
2021/01/13 02:53:30;;;;;;;26.27;16.33;;;;;;;-2.31;79.82;95039.91;5121215;27;20047;-65
2021/01/13 02:55:57;;;;;;;22.50;15.57;;;;;;;-2.29;79.93;95045.69;5111150;27;20354;-60
2021/01/13 02:58:30;;;;;;;24.17;14.77;;;;;;;-2.30;79.66;95046.69;5125565;27;20059;-57
2021/01/13 03:00:59;;;;;;;21.05;14.25;;;;;;;-2.36;80.09;95053.41;5106165;27;20771;-57
2021/01/13 03:03:31;;;;;;;25.38;16.50;;;;;;;-2.28;80.45;95064.56;5091273;27;20047;-60
2021/01/13 03:06:06;;;;;;;24.65;16.75;;;;;;;-2.29;79.84;95058.59;5115859;27;20051;-56
2021/01/13 03:08:45;;;;;;;25.88;17.17;;;;;;;-2.35;80.07;95062.75;5107825;27;20039;-56
2021/01/13 03:11:20;;;;;;;24.73;16.70;;;;;;;-2.45;79.24;95067.47;5120970;27;20054;-56
2021/01/13 03:13:49;;;;;;;19.88;14.80;;;;;;;-2.58;79.82;95052.75;5128593;27;20039;-57
2021/01/13 03:16:16;;;;;;;22.42;15.38;;;;;;;-2.57;79.47;95075.00;5118780;27;20069;-56
2021/01/13 03:18:58;;;;;;;25.98;16.45;;;;;;;-2.59;79.51;95073.63;5129192;27;20515;-58
2021/01/13 03:21:39;;;;;;;25.30;16.75;;;;;;;-2.67;80.06;95069.41;5117800;27;20061;-56
2021/01/13 03:24:39;;;;;;;24.08;16.25;;;;;;;-2.63;80.42;95075.78;5111245;27;20363;-56
2021/01/13 03:27:09;;;;;;;24.38;15.75;;;;;;;-2.66;80.11;95052.94;5133167;27;20131;-56
2021/01/13 03:29:41;;;;;;;26.90;17.20;;;;;;;-2.67;80.05;95064.25;5119011;27;20051;-56
2021/01/13 03:32:15;;;;;;;23.30;16.98;;;;;;;-2.67;80.32;95064.25;5103463;27;20047;-59
2021/01/13 03:35:09;;;;;;;23.58;16.33;;;;;;;-2.63;80.38;95055.13;5126194;27;20046;-59
2021/01/13 03:38:01;;;;;;;27.88;19.38;;;;;;;-2.63;80.02;95060.28;5109133;27;20074;-56
2021/01/13 03:40:32;;;;;;;24.17;15.82;;;;;;;-2.62;80.47;95051.53;5126997;27;20051;-56
2021/01/13 03:43:03;;;;;;;22.70;14.70;;;;;;;-2.61;79.92;95034.28;5089756;27;20051;-56
2021/01/13 03:45:39;;;;;;;24.27;16.05;;;;;;;-2.65;80.56;95039.06;5109091;27;20047;-56
2021/01/13 03:48:46;;;;;;;22.33;15.75;;;;;;;-2.66;80.71;95045.97;5126189;27;20055;-56
2021/01/13 03:51:40;;;;;;;24.95;16.48;;;;;;;-2.60;80.34;95044.41;5093617;27;20068;-57
2021/01/13 03:54:10;;;;;;;21.02;15.45;;;;;;;-2.60;80.50;95052.16;5113075;27;20409;-55
2021/01/13 03:57:07;;;;;;;25.42;16.10;;;;;;;-2.57;80.58;95050.97;5119014;27;20051;-57
2021/01/13 04:00:01;;;;;;;25.67;16.58;;;;;;;-2.60;81.08;95053.94;5117745;27;20054;-56
2021/01/13 04:03:24;;;;;;;25.00;16.55;;;;;;;-2.55;80.90;95061.91;5120633;27;20419;-62
2021/01/13 04:06:08;;;;;;;25.88;15.75;;;;;;;-2.51;80.62;95061.31;5126038;27;20054;-61
2021/01/13 04:08:41;;;;;;;26.17;17.15;;;;;;;-2.48;80.52;95071.25;5116585;27;20069;-57
2021/01/13 04:11:13;;;;;;;28.70;16.92;;;;;;;-2.47;80.44;95066.91;5127998;27;20495;-56
2021/01/13 04:13:42;;;;;;;29.90;17.70;;;;;;;-2.44;80.92;95076.81;5107315;27;20395;-56
2021/01/13 04:16:11;;;;;;;22.42;16.23;;;;;;;-2.41;80.42;95070.50;5120138;27;20070;-56
2021/01/13 04:18:41;;;;;;;27.23;17.40;;;;;;;-2.40;80.53;95067.72;5125796;27;20039;-59
2021/01/13 04:21:11;;;;;;;26.75;16.50;;;;;;;-2.42;80.42;95064.53;5096489;27;20219;-61
2021/01/13 04:23:39;;;;;;;28.42;17.25;;;;;;;-2.41;80.31;95060.16;5110941;27;20082;-56
2021/01/13 04:26:07;;;;;;;20.75;13.93;;;;;;;-2.36;79.85;95068.91;5130494;27;20042;-56
2021/01/13 04:28:34;;;;;;;23.27;15.13;;;;;;;-2.33;80.71;95072.88;5128463;27;20050;-56
2021/01/13 04:31:04;;;;;;;22.80;14.93;;;;;;;-2.29;79.75;95079.28;5123451;27;20253;-57
2021/01/13 04:33:31;;;;;;;21.77;15.77;;;;;;;-2.25;80.52;95075.28;5130850;27;20050;-56
2021/01/13 04:35:59;;;;;;;18.00;11.43;;;;;;;-2.22;80.11;95085.22;5122030;27;20098;-56
2021/01/13 04:38:31;;;;;;;20.17;13.55;;;;;;;-2.15;80.13;95087.84;5099439;27;20047;-56
2021/01/13 04:41:13;;;;;;;22.85;13.60;;;;;;;-2.10;80.04;95092.41;5134086;27;20062;-56
2021/01/13 04:43:50;;;;;;;17.58;14.02;;;;;;;-2.07;80.03;95092.03;5110960;27;20051;-56
2021/01/13 04:46:29;;;;;;;19.52;12.60;;;;;;;-2.01;79.88;95097.22;5125497;27;20055;-61
2021/01/13 04:49:19;;;;;;;23.67;15.07;;;;;;;-2.01;80.10;95092.03;5106973;27;20491;-56
2021/01/13 04:51:50;;;;;;;20.58;14.55;;;;;;;-1.99;80.39;95094.41;5116623;27;20046;-59
2021/01/13 04:54:18;;;;;;;24.60;16.38;;;;;;;-1.94;80.01;95104.16;5105127;27;20050;-57
2021/01/13 04:57:11;;;;;;;23.88;15.75;;;;;;;-1.90;80.58;95102.78;5118785;27;20046;-56
2021/01/13 04:59:55;;;;;;;19.67;13.68;;;;;;;-1.87;79.63;95103.19;5112571;27;20069;-57
2021/01/13 05:02:40;;;;;;;23.55;16.17;;;;;;;-1.83;79.51;95111.31;5109762;27;20046;-56
2021/01/13 05:05:08;;;;;;;22.35;15.57;;;;;;;-1.82;79.82;95101.78;5096578;27;20659;-61
2021/01/13 05:07:37;;;;;;;23.25;14.70;;;;;;;-1.79;79.12;95093.66;5126879;27;20587;-57
2021/01/13 05:10:12;;;;;;;23.83;15.20;;;;;;;-1.80;78.94;95090.25;5109388;27;20047;-56
2021/01/13 05:12:55;;;;;;;17.60;12.50;;;;;;;-1.82;78.57;95094.81;5120333;27;20473;-58
2021/01/13 05:15:31;;;;;;;19.25;14.30;;;;;;;-1.93;78.49;95077.31;5118816;27;20054;-56
2021/01/13 05:18:07;;;;;;;20.52;12.65;;;;;;;-1.83;78.25;95103.56;5094830;27;20054;-58
2021/01/13 05:20:39;;;;;;;16.10;12.77;;;;;;;-1.86;78.85;95107.34;5128426;27;20047;-57
2021/01/13 05:23:09;;;;;;;17.05;12.88;;;;;;;-1.83;78.48;95113.13;5118186;27;20457;-59
2021/01/13 05:25:39;;;;;;;19.35;12.77;;;;;;;-1.84;78.81;95119.28;5103182;27;20043;-56
2021/01/13 05:28:08;;;;;;;18.27;13.35;;;;;;;-1.84;79.12;95116.72;5120680;27;20043;-56
2021/01/13 05:30:38;;;;;;;21.77;13.25;;;;;;;-1.83;78.69;95120.88;5120870;27;20068;-56
2021/01/13 05:33:07;;;;;;;18.73;12.45;;;;;;;-1.82;78.25;95125.84;5132937;27;20051;-56
2021/01/13 05:35:46;;;;;;;21.75;14.35;;;;;;;-1.82;79.00;95127.66;5111630;27;20061;-58
2021/01/13 05:38:19;;;;;;;16.05;12.23;;;;;;;-1.81;78.27;95131.81;5118072;27;20039;-57
2021/01/13 05:40:49;;;;;;;18.83;12.65;;;;;;;-1.82;77.64;95138.00;5131155;27;20047;-56
2021/01/13 05:43:18;;;;;;;19.05;12.90;;;;;;;-1.80;78.27;95139.38;5106381;27;20051;-55
2021/01/13 05:45:49;;;;;;;21.17;14.05;;;;;;;-1.80;77.82;95147.13;5082979;27;20035;-56
2021/01/13 05:48:19;;;;;;;19.08;12.45;;;;;;;-1.75;78.12;95157.69;5109321;27;20035;-56
2021/01/13 05:50:47;;;;;;;21.13;14.95;;;;;;;-1.75;77.74;95165.44;5122939;27;20061;-56
2021/01/13 05:53:15;;;;;;;25.60;17.05;;;;;;;-1.76;77.86;95173.38;5102614;27;20357;-56
2021/01/13 05:55:47;;;;;;;20.15;12.20;;;;;;;-1.74;76.91;95174.00;5128439;27;20172;-55
2021/01/13 05:58:21;;;;;;;18.58;12.52;;;;;;;-1.73;77.11;95180.75;5101417;27;20066;-55
2021/01/13 06:00:52;;;;;;;22.42;13.27;;;;;;;-1.72;76.70;95174.59;5090032;27;20509;-56
2021/01/13 06:03:29;;;;;;;20.63;12.93;;;;;;;-1.73;76.97;95168.66;5115332;27;20038;-56
2021/01/13 06:06:00;;;;;;;14.20;9.10;;;;;;;-1.70;76.04;95175.19;5070868;27;20435;-56
2021/01/13 06:08:32;;;;;;;11.52;7.22;;;;;;;-1.66;74.82;95175.59;5104687;27;20359;-56
2021/01/13 06:11:01;;;;;;;8.02;5.95;;;;;;;-1.61;74.20;95179.19;5099206;27;20046;-57
2021/01/13 06:13:33;;;;;;;11.93;7.28;;;;;;;-1.55;74.60;95186.16;5122953;27;20047;-56
2021/01/13 06:16:04;;;;;;;10.38;7.18;;;;;;;-1.53;74.78;95195.50;5090859;27;21510;-56
2021/01/13 06:18:34;;;;;;;11.20;6.18;;;;;;;-1.52;74.86;95192.72;5110575;27;20498;-56
2021/01/13 06:21:10;;;;;;;10.57;6.35;;;;;;;-1.49;73.14;95199.28;5133639;27;20747;-55
2021/01/13 06:23:47;;;;;;;9.38;6.25;;;;;;;-1.47;73.58;95202.47;5105559;27;20055;-59
2021/01/13 06:26:16;;;;;;;6.63;5.28;;;;;;;-1.46;71.70;95220.38;5093075;27;20427;-56
2021/01/13 06:28:58;;;;;;;12.85;6.30;;;;;;;-1.48;71.10;95221.59;5113132;27;20376;-57
2021/01/13 06:31:26;;;;;;;10.25;4.68;;;;;;;-1.52;71.84;95223.78;5104332;27;20050;-56
2021/01/13 06:34:00;;;;;;;6.55;3.72;;;;;;;-1.52;70.50;95230.72;5090705;27;20047;-58
2021/01/13 06:36:52;;;;;;;5.15;3.60;;;;;;;-1.52;70.13;95228.94;5127018;27;20059;-57
2021/01/13 06:39:23;;;;;;;5.63;3.45;;;;;;;-1.55;69.18;95237.91;5088852;27;20050;-57
2021/01/13 06:41:50;;;;;;;5.20;3.10;;;;;;;-1.61;68.80;95236.09;5123870;27;20042;-57
2021/01/13 06:44:18;;;;;;;6.65;3.17;;;;;;;-1.53;68.25;95244.63;5118196;27;20046;-56
2021/01/13 06:46:47;;;;;;;7.68;4.22;;;;;;;-1.56;68.39;95238.88;5098084;27;20055;-56
2021/01/13 06:49:22;;;;;;;9.77;5.32;;;;;;;-1.57;69.29;95247.63;5095554;27;20399;-58
2021/01/13 06:51:52;;;;;;;8.60;5.10;;;;;;;-1.52;69.59;95243.66;5128265;27;20043;-57
2021/01/13 06:54:20;;;;;;;9.32;5.30;;;;;;;-1.51;69.56;95251.22;5114701;27;20054;-57
2021/01/13 06:56:56;;;;;;;9.85;5.07;;;;;;;-1.56;70.25;95249.25;5123675;27;20682;-56
2021/01/13 06:59:24;;;;;;;8.35;5.10;;;;;;;-1.50;68.36;95257.19;5124684;27;20043;-57
2021/01/13 07:01:58;;;;;;;11.00;6.65;;;;;;;-1.49;69.29;95253.59;5114325;27;20047;-57
2021/01/13 07:04:27;;;;;;;6.68;3.38;;;;;;;-1.53;66.93;95267.91;5130560;27;20044;-56
2021/01/13 07:07:07;;;;;;;4.88;3.13;;;;;;;-1.51;67.16;95260.75;5098271;27;20146;-58
2021/01/13 07:09:41;;;;;;;5.60;3.42;;;;;;;-1.50;66.16;95262.38;5121247;27;20588;-56
2021/01/13 07:12:14;;;;;;;9.55;4.30;;;;;;;-1.36;67.05;95269.16;5106558;27;20057;-57
2021/01/13 07:14:44;;;;;;;5.38;3.80;;;;;;;-1.25;66.76;95272.97;5117031;27;20296;-58
2021/01/13 07:17:20;;;;;;;4.53;2.53;;;;;;;-1.14;65.11;95282.75;5118341;27;20047;-59
2021/01/13 07:19:49;;;;;;;7.82;2.92;;;;;;;-1.06;63.12;95271.41;5116055;27;20046;-57
2021/01/13 07:22:18;;;;;;;4.15;2.72;;;;;;;-0.95;62.26;95283.75;5130973;27;20489;-57
2021/01/13 07:24:46;;;;;;;7.75;2.95;;;;;;;-0.87;62.42;95284.53;5098569;27;20157;-57
2021/01/13 07:27:15;;;;;;;7.93;4.35;;;;;;;-0.80;64.53;95293.13;5114061;27;20047;-57
2021/01/13 07:29:47;;;;;;;6.28;5.50;;;;;;;-0.81;65.86;95294.13;5108666;27;20513;-57
2021/01/13 07:32:19;;;;;;;2.38;2.00;;;;;;;-0.84;61.94;95297.09;5127461;27;20528;-57
2021/01/13 07:34:54;;;;;;;4.25;2.60;;;;;;;-0.76;63.30;95289.13;5112752;27;20062;-57
2021/01/13 07:37:22;;;;;;;6.13;3.65;;;;;;;-0.74;62.58;95301.88;5128887;27;20043;-57
2021/01/13 07:39:58;;;;;;;4.57;3.73;;;;;;;-0.76;64.14;95314.22;5129280;27;20039;-57
2021/01/13 07:42:45;;;;;;;9.75;6.82;;;;;;;-0.70;63.56;95300.47;5102064;27;20051;-63
2021/01/13 07:45:20;;;;;;;5.70;2.85;;;;;;;-0.71;62.49;95306.66;5110602;27;20043;-57
2021/01/13 07:47:47;;;;;;;3.90;2.50;;;;;;;-0.70;62.64;95303.88;5126309;27;20046;-56
2021/01/13 07:50:15;;;;;;;5.60;2.78;;;;;;;-0.71;63.61;95310.06;5104519;27;20066;-57
2021/01/13 07:52:44;;;;;;;4.07;2.22;;;;;;;-0.73;62.86;95312.03;5109921;27;20065;-57
2021/01/13 07:55:19;;;;;;;4.68;3.30;;;;;;;-0.70;64.24;95311.66;5110352;27;20049;-59
2021/01/13 07:57:48;;;;;;;6.05;4.47;;;;;;;-0.70;65.16;95306.47;5126868;27;20055;-57
2021/01/13 08:00:47;;;;;;;4.13;2.20;;;;;;;-0.79;65.04;95300.69;5091714;27;20419;-56
2021/01/13 08:03:17;;;;;;;5.20;3.03;;;;;;;-0.78;66.18;95312.63;5088701;27;20611;-56
2021/01/13 08:06:03;;;;;;;6.68;2.85;;;;;;;-0.70;65.99;95303.06;5080443;27;20047;-57
2021/01/13 08:09:01;;;;;;;7.03;3.58;;;;;;;-0.56;64.84;95309.06;5114298;27;20269;-57
2021/01/13 08:12:01;;;;;;;7.57;5.18;;;;;;;-0.57;64.19;95312.66;5118451;27;20975;-57
2021/01/13 08:14:50;;;;;;;5.25;3.13;;;;;;;-0.56;63.76;95322.00;5096249;27;20046;-57
2021/01/13 08:17:54;;;;;;;6.55;4.18;;;;;;;-0.34;64.88;95323.38;5116483;27;20058;-60
2021/01/13 08:21:01;;;;;;;5.57;4.95;;;;;;;-0.07;64.30;95322.53;5105634;27;20042;-56
2021/01/13 08:24:09;;;;;;;;;;;;;;;0.14;63.70;95324.06;5117253;27;20061;-57
2021/01/13 08:26:27;;;;;;;7.95;2.70;;;;;;;0.23;63.27;95325.44;5098083;27;19935;-57
2021/01/13 08:28:57;;;;;;;5.95;2.55;;;;;;;0.32;62.70;95327.78;5105213;27;20054;-57
2021/01/13 08:31:26;;;;;;;2.67;2.40;;;;;;;0.47;62.88;95327.56;5104464;27;20078;-57
2021/01/13 08:34:07;;;;;;;3.47;2.30;;;;;;;0.55;62.73;95322.94;5106840;27;20057;-57
2021/01/13 08:36:37;;;;;;;5.55;3.42;;;;;;;0.70;62.60;95322.66;5111152;27;20426;-57
2021/01/13 08:39:12;;;;;;;8.23;3.22;;;;;;;0.93;62.07;95329.13;5096025;27;20046;-59
2021/01/13 08:41:45;;;;;;;4.15;2.72;;;;;;;1.04;60.14;95335.47;5098147;27;20063;-57
2021/01/13 08:44:18;;;;;;;6.00;3.75;;;;;;;1.02;61.13;95340.84;5070866;27;20062;-57
2021/01/13 08:46:49;;;;;;;3.80;2.33;;;;;;;0.77;61.97;95341.56;5112640;27;20039;-57
2021/01/13 08:49:25;;;;;;;5.90;3.00;;;;;;;0.65;63.16;95329.47;5096452;27;20047;-57
2021/01/13 08:52:26;;;;;;;5.40;3.50;;;;;;;0.65;64.52;95324.28;5120689;27;20447;-57
2021/01/13 08:54:56;;;;;;;7.45;3.42;;;;;;;0.79;64.25;95328.41;5067284;27;20047;-59
2021/01/13 08:57:25;;;;;;;7.40;4.05;;;;;;;0.94;63.84;95327.31;5098409;27;20042;-57
2021/01/13 08:59:53;;;;;;;7.50;3.65;;;;;;;0.81;64.18;95318.59;5123236;27;20047;-57
2021/01/13 09:02:22;;;;;;;3.95;2.95;;;;;;;0.74;63.25;95320.44;5118212;27;20042;-57
2021/01/13 09:04:57;;;;;;;3.58;2.58;;;;;;;0.86;63.17;95330.97;5111305;27;20047;-57
2021/01/13 09:07:26;;;;;;;4.90;3.45;;;;;;;1.04;63.30;95333.63;5126920;27;20069;-60
2021/01/13 09:09:59;;;;;;;4.25;2.50;;;;;;;1.13;63.05;95331.59;5114916;27;20495;-59
2021/01/13 09:12:34;;;;;;;5.85;3.15;;;;;;;1.09;61.21;95327.81;5127321;27;20483;-59
2021/01/13 09:15:07;;;;;;;3.83;2.80;;;;;;;0.86;62.94;95326.56;5127715;27;20038;-59
2021/01/13 09:17:56;;;;;;;5.45;3.10;;;;;;;0.96;62.18;95340.88;5119208;27;20049;-57
2021/01/13 09:20:29;;;;;;;4.78;2.72;;;;;;;0.98;61.75;95331.09;5131363;27;20036;-57
2021/01/13 09:23:02;;;;;;;3.53;2.13;;;;;;;1.26;61.60;95340.31;5117905;27;21509;-56
2021/01/13 09:25:31;;;;;;;6.55;2.95;;;;;;;1.60;60.62;95340.84;5133010;27;20525;-56
2021/01/13 09:28:03;;;;;;;6.65;3.45;;;;;;;1.74;60.94;95354.50;5131806;27;20047;-57
2021/01/13 09:30:33;;;;;;;5.22;2.53;;;;;;;1.62;58.66;95359.63;5119105;27;20054;-59
2021/01/13 09:33:02;;;;;;;6.65;3.00;;;;;;;1.52;59.08;95355.72;5118516;27;20514;-58
2021/01/13 09:35:43;;;;;;;4.88;2.72;;;;;;;1.48;59.09;95359.72;5114838;27;20047;-62
2021/01/13 09:38:13;;;;;;;5.75;2.75;;;;;;;1.32;58.75;95360.22;5131264;27;20045;-56
2021/01/13 09:40:51;;;;;;;6.80;3.28;;;;;;;1.27;59.90;95350.47;5118665;27;20046;-56
2021/01/13 09:43:37;;;;;;;6.90;4.00;;;;;;;1.23;59.92;95342.31;5111775;27;20054;-68
2021/01/13 09:46:31;;;;;;;14.98;4.50;;;;;;;1.31;59.55;95348.25;5115282;27;20550;-57
2021/01/13 09:49:09;;;;;;;5.30;3.55;;;;;;;1.32;59.41;95345.44;5120015;27;20049;-57
2021/01/13 09:51:40;;;;;;;7.30;3.40;;;;;;;1.12;60.60;95342.97;5126385;27;20387;-58
2021/01/13 09:54:08;;;;;;;5.10;3.17;;;;;;;1.18;59.40;95341.34;5128129;27;20507;-57
2021/01/13 09:56:37;;;;;;;5.88;3.20;;;;;;;1.28;59.66;95331.28;5115040;27;20051;-57
2021/01/13 09:59:08;;;;;;;3.45;2.45;;;;;;;1.29;59.16;95332.88;5118421;27;20066;-57
2021/01/13 10:01:37;;;;;;;4.38;2.75;;;;;;;1.29;59.77;95326.91;5086196;27;20059;-57
2021/01/13 10:04:12;;;;;;;5.45;3.08;;;;;;;1.27;59.25;95323.72;5111723;27;20038;-57
2021/01/13 10:06:41;;;;;;;6.55;3.67;;;;;;;1.27;60.08;95321.09;5103768;27;20065;-57
2021/01/13 10:09:19;;;;;;;6.13;3.55;;;;;;;1.31;59.79;95317.06;5128798;27;20054;-57
2021/01/13 10:11:56;;;;;;;10.55;3.83;;;;;;;1.33;59.29;95300.28;5118376;27;20051;-57
2021/01/13 10:14:23;;;;;;;4.32;2.00;;;;;;;1.43;59.25;95317.19;5120716;27;20091;-56
2021/01/13 10:16:51;;;;;;;3.65;2.03;;;;;;;1.37;58.88;95319.59;5120099;27;20514;-57
2021/01/13 10:19:20;;;;;;;6.00;1.75;;;;;;;1.38;58.93;95310.03;5116205;27;20047;-58
2021/01/13 10:21:48;;;;;;;5.93;3.20;;;;;;;1.55;58.98;95315.47;5110653;27;20597;-57
2021/01/13 10:24:18;;;;;;;5.93;3.08;;;;;;;1.57;57.54;95315.25;5114899;27;20054;-57
2021/01/13 10:26:49;;;;;;;3.90;2.60;;;;;;;1.59;57.81;95315.84;5120844;27;20043;-58
2021/01/13 10:29:24;;;;;;;5.38;3.67;;;;;;;1.58;58.12;95315.06;5089876;27;20047;-57
2021/01/13 10:31:51;;;;;;;6.20;2.97;;;;;;;1.62;58.27;95303.22;5113771;27;20046;-57
2021/01/13 10:34:19;;;;;;;4.60;2.70;;;;;;;1.69;58.39;95311.75;5111543;27;20047;-60
2021/01/13 10:36:52;;;;;;;17.55;7.30;;;;;;;1.68;58.51;95306.75;5119646;27;20070;-58
2021/01/13 10:39:23;;;;;;;14.88;8.68;;;;;;;1.71;58.33;95305.56;5118715;27;20054;-57
2021/01/13 10:41:56;;;;;;;3.92;3.47;;;;;;;1.68;58.65;95306.75;5103829;27;20399;-57
2021/01/13 10:44:29;;;;;;;7.00;3.80;;;;;;;1.51;60.07;95316.91;5127011;27;20058;-57
2021/01/13 10:47:09;;;;;;;6.28;3.65;;;;;;;1.50;59.90;95310.94;5128338;27;20563;-57
2021/01/13 10:49:46;;;;;;;5.05;3.85;;;;;;;1.53;60.71;95304.50;5119616;27;20042;-57
2021/01/13 10:52:18;;;;;;;10.07;3.10;;;;;;;1.36;60.69;95301.66;5137131;27;20043;-57
2021/01/13 10:54:47;;;;;;;6.40;3.97;;;;;;;1.19;61.46;95304.75;5137001;27;20047;-57
2021/01/13 10:57:17;;;;;;;4.75;3.53;;;;;;;1.10;62.62;95300.06;5111512;27;20047;-57
2021/01/13 10:59:45;;;;;;;7.78;3.35;;;;;;;1.15;61.80;95308.00;5128676;27;20050;-57
2021/01/13 11:02:16;;;;;;;7.50;2.78;;;;;;;1.04;62.13;95312.84;5122517;27;20061;-57
2021/01/13 11:04:46;;;;;;;4.78;2.85;;;;;;;1.11;62.25;95312.81;5084674;27;20054;-59
2021/01/13 11:07:16;;;;;;;8.25;4.10;;;;;;;1.04;62.87;95312.06;5112414;27;20043;-58
2021/01/13 11:09:51;;;;;;;4.45;3.25;;;;;;;0.96;63.40;95314.91;5113908;27;20069;-58
2021/01/13 11:12:25;;;;;;;;;;;;;;;0.93;64.59;95305.75;5126446;27;20038;-57
2021/01/13 11:14:53;;;;;;;7.05;3.58;;;;;;;0.92;64.96;95306.75;5097180;27;19919;-57
2021/01/13 11:17:22;;;;;;;7.13;3.20;;;;;;;0.92;64.85;95301.56;5131719;27;20434;-57
2021/01/13 11:19:56;;;;;;;3.70;2.88;;;;;;;0.96;65.77;95297.53;5131883;27;20043;-58
2021/01/13 11:22:44;;;;;;;7.75;2.92;;;;;;;1.08;65.65;95302.84;5132384;27;20422;-58
2021/01/13 11:25:39;;;;;;;4.30;2.35;;;;;;;1.02;64.71;95306.28;5119612;27;20051;-57
2021/01/13 11:28:08;;;;;;;3.73;3.03;;;;;;;1.10;65.29;95300.84;5114501;27;20049;-58
2021/01/13 11:30:38;;;;;;;4.40;2.88;;;;;;;1.21;64.76;95296.78;5107070;27;20648;-58
2021/01/13 11:33:08;;;;;;;8.73;3.03;;;;;;;1.41;63.90;95301.81;5119021;27;20054;-57
2021/01/13 11:35:37;;;;;;;4.30;3.03;;;;;;;1.47;62.95;95279.38;5120254;27;20047;-57
2021/01/13 11:38:36;;;;;;;5.13;2.53;;;;;;;1.52;61.59;95287.31;5128796;27;20051;-58
2021/01/13 11:41:41;;;;;;;7.53;3.95;;;;;;;1.68;62.14;95286.78;5118720;27;20042;-57
2021/01/13 11:44:35;;;;;;;7.80;3.97;;;;;;;1.93;60.56;95287.72;5118564;27;20047;-57
2021/01/13 11:47:31;;;;;;;5.13;3.33;;;;;;;1.95;59.78;95276.09;5128402;27;21072;-60
2021/01/13 11:50:10;;;;;;;5.20;4.68;;;;;;;1.83;60.31;95278.63;5117221;27;20398;-58
2021/01/13 11:52:41;;;;;;;6.63;3.33;;;;;;;1.79;60.62;95281.88;5113901;27;20054;-58
2021/01/13 11:55:10;;;;;;;6.43;2.83;;;;;;;1.88;60.58;95274.59;5132981;27;20059;-57
2021/01/13 11:57:37;;;;;;;5.78;3.42;;;;;;;1.90;61.07;95268.13;5110989;27;20074;-57
2021/01/13 12:00:12;;;;;;;7.55;3.55;;;;;;;1.80;61.71;95279.03;5117272;27;20418;-57